Terminal Aerodrome Forecast
Issued by NWS

Current Version | Previous Version | Graphics & Text | Print | Product List | Glossary On
Versions: 1 2 3 4 5 6 7 8 9 10 11 12 13 14 15 16 17 18 19 20 21 22 23 24 25
600
FTUS41 KILN 230536
TAFLCK
TAF
KLCK 230536Z 2306/2406 17006KT P6SM BKN050
     FM231000 20005KT 3SM BR OVC022
     FM231500 21008KT P6SM BKN017
     FM232100 21007KT P6SM VCSH BKN035
     FM240000 17004KT P6SM BKN040
     FM240300 VRB03KT P6SM BKN029=

USA.gov is the U.S. government's official web portal to all federal, state and local government web resources and services.